createdAt,value
2023-05-10T00:00:21.551Z,15.54
2023-05-10T00:02:53.935Z,15.60
2023-05-10T00:05:23.684Z,15.58
2023-05-10T00:07:53.216Z,15.56
2023-05-10T00:10:22.689Z,15.59
2023-05-10T00:12:52.247Z,15.64
2023-05-10T00:15:21.710Z,15.61
2023-05-10T00:17:53.826Z,15.62
2023-05-10T00:20:23.332Z,15.62
2023-05-10T00:22:52.740Z,15.56
2023-05-10T00:25:22.666Z,15.57
2023-05-10T00:27:52.277Z,15.55
2023-05-10T00:30:21.854Z,15.55
2023-05-10T00:32:54.100Z,15.51
2023-05-10T00:35:23.630Z,15.43
2023-05-10T00:37:53.203Z,15.48
2023-05-10T00:40:24.528Z,15.45
2023-05-10T00:42:58.513Z,15.41
2023-05-10T00:45:28.466Z,15.37
2023-05-10T00:48:01.070Z,15.37
2023-05-10T00:50:30.417Z,15.39
2023-05-10T00:53:00.499Z,15.37
2023-05-10T00:55:30.352Z,15.32
2023-05-10T00:57:59.836Z,15.32
2023-05-10T01:00:30.690Z,15.30
2023-05-10T01:03:02.947Z,15.26
2023-05-10T01:05:33.016Z,15.27
2023-05-10T01:08:02.474Z,15.27
2023-05-10T01:10:34.282Z,15.23
2023-05-10T01:13:04.268Z,15.15
2023-05-10T01:15:34.865Z,15.14
2023-05-10T01:18:07.452Z,15.18
2023-05-10T01:20:46.905Z,15.12
2023-05-10T01:23:39.615Z,15.14
2023-05-10T01:26:28.416Z,15.09
2023-05-10T01:29:22.589Z,15.05
2023-05-10T01:32:19.985Z,14.97
2023-05-10T01:35:00.893Z,14.90
2023-05-10T01:37:43.206Z,14.91
2023-05-10T01:40:29.730Z,14.95
2023-05-10T01:43:04.615Z,14.91
2023-05-10T01:45:37.888Z,14.90
2023-05-10T01:48:13.422Z,14.88
2023-05-10T01:50:47.575Z,14.94
2023-05-10T01:53:22.527Z,14.93
2023-05-10T01:55:56.191Z,14.86
2023-05-10T01:58:31.028Z,14.74
2023-05-10T02:01:03.770Z,14.84
2023-05-10T02:03:38.307Z,14.78
2023-05-10T02:06:09.525Z,14.67
2023-05-10T02:08:40.052Z,14.72
2023-05-10T02:11:10.483Z,14.63
2023-05-10T02:13:41.432Z,14.61
2023-05-10T02:16:12.128Z,14.57
2023-05-10T02:18:45.173Z,14.63
2023-05-10T02:21:16.094Z,14.56
2023-05-10T02:23:46.921Z,14.60
2023-05-10T02:26:17.732Z,14.64
2023-05-10T02:28:48.452Z,14.60
2023-05-10T02:31:18.876Z,14.53
2023-05-10T02:33:52.708Z,14.52
2023-05-10T02:36:24.858Z,14.44
2023-05-10T02:38:56.561Z,14.48
2023-05-10T02:41:28.854Z,14.54
2023-05-10T02:44:03.722Z,14.53
2023-05-10T02:46:34.196Z,14.59
2023-05-10T02:49:07.866Z,14.59
2023-05-10T02:51:41.172Z,14.50
2023-05-10T02:54:15.747Z,14.47
2023-05-10T02:56:50.946Z,14.45
2023-05-10T02:59:20.775Z,14.50
2023-05-10T03:01:50.435Z,14.53
2023-05-10T03:04:22.736Z,14.50
2023-05-10T03:06:52.361Z,14.48
2023-05-10T03:09:22.677Z,14.43
2023-05-10T03:12:00.472Z,14.46
2023-05-10T03:14:47.159Z,14.49
2023-05-10T03:17:21.700Z,14.48
2023-05-10T03:19:58.160Z,14.45
2023-05-10T03:22:34.354Z,14.39
2023-05-10T03:25:07.551Z,14.37
2023-05-10T03:27:40.215Z,14.33
2023-05-10T03:30:12.438Z,14.38
2023-05-10T03:32:42.366Z,14.39
2023-05-10T03:35:16.906Z,14.41
2023-05-10T03:37:48.024Z,14.33
2023-05-10T03:40:18.218Z,14.31
2023-05-10T03:42:48.064Z,14.32
2023-05-10T03:45:17.560Z,14.27
2023-05-10T03:47:47.058Z,14.26
2023-05-10T03:50:19.593Z,14.17
2023-05-10T03:52:49.091Z,14.22
2023-05-10T03:55:18.566Z,14.14
2023-05-10T03:57:50.647Z,14.10
2023-05-10T04:00:20.577Z,14.13
2023-05-10T04:02:53.879Z,14.11
2023-05-10T04:05:26.327Z,14.19
2023-05-10T04:07:56.200Z,14.13
2023-05-10T04:10:25.665Z,14.05
2023-05-10T04:12:55.118Z,14.11
2023-05-10T04:15:24.661Z,14.20
2023-05-10T04:17:54.826Z,14.09
2023-05-10T04:20:27.012Z,14.16
2023-05-10T04:22:56.699Z,14.15
2023-05-10T04:25:26.260Z,14.11
2023-05-10T04:27:55.808Z,14.07
2023-05-10T04:30:25.212Z,13.96
2023-05-10T04:32:54.652Z,14.01
2023-05-10T04:35:27.296Z,14.03
2023-05-10T04:37:56.535Z,14.02
2023-05-10T04:40:26.008Z,13.96
2023-05-10T04:42:55.591Z,13.98
2023-05-10T04:45:25.236Z,13.95
2023-05-10T04:47:54.695Z,13.89
2023-05-10T04:50:27.012Z,13.86
2023-05-10T04:52:56.605Z,13.90
2023-05-10T04:55:26.184Z,13.91
2023-05-10T04:57:57.851Z,13.87
2023-05-10T05:00:27.395Z,13.83
2023-05-10T05:02:56.906Z,13.93
2023-05-10T05:05:29.030Z,13.89
2023-05-10T05:07:58.484Z,14.01
2023-05-10T05:10:27.931Z,13.88
2023-05-10T05:12:57.408Z,13.79
2023-05-10T05:15:26.956Z,13.86
2023-05-10T05:17:56.558Z,13.86
2023-05-10T05:20:26.048Z,13.74
2023-05-10T05:22:58.182Z,13.75
2023-05-10T05:25:27.644Z,13.91
2023-05-10T05:27:57.168Z,13.89
2023-05-10T05:30:26.610Z,13.94
2023-05-10T05:32:56.171Z,13.99
2023-05-10T05:35:25.700Z,13.93
2023-05-10T05:37:57.744Z,13.98
2023-05-10T05:40:27.170Z,14.00
2023-05-10T05:42:56.595Z,13.79
2023-05-10T05:45:26.018Z,13.64
2023-05-10T05:47:55.514Z,13.85
2023-05-10T05:50:25.067Z,13.87
2023-05-10T05:52:54.514Z,14.00
2023-05-10T05:55:27.020Z,14.00
2023-05-10T05:57:56.499Z,13.98
2023-05-10T06:00:25.971Z,13.94
2023-05-10T06:02:55.518Z,13.87
2023-05-10T06:05:25.029Z,13.87
2023-05-10T06:07:54.473Z,13.77
2023-05-10T06:10:26.607Z,13.81
2023-05-10T06:12:56.219Z,13.93
2023-05-10T06:15:25.783Z,14.01
2023-05-10T06:17:55.348Z,14.02
2023-05-10T06:20:24.803Z,14.02
2023-05-10T06:22:54.309Z,14.08
2023-05-10T06:25:26.432Z,13.99
2023-05-10T06:27:58.884Z,13.98
2023-05-10T06:30:30.328Z,14.03
2023-05-10T06:33:00.386Z,14.05
2023-05-10T06:35:30.665Z,14.04
2023-05-10T06:38:00.231Z,13.94
2023-05-10T06:40:32.499Z,13.95
2023-05-10T06:43:02.020Z,13.98
2023-05-10T06:45:31.572Z,14.04
2023-05-10T06:48:01.055Z,14.04
2023-05-10T06:50:30.759Z,14.09
2023-05-10T06:53:00.314Z,14.10
2023-05-10T06:55:32.543Z,14.09
2023-05-10T06:58:02.030Z,13.99
2023-05-10T07:00:31.706Z,14.04
2023-05-10T07:03:01.236Z,14.05
2023-05-10T07:05:31.164Z,14.14
2023-05-10T07:08:00.974Z,14.12
2023-05-10T07:10:33.107Z,14.08
2023-05-10T07:13:02.795Z,14.17
2023-05-10T07:15:32.764Z,14.18
2023-05-10T07:18:02.368Z,14.22
2023-05-10T07:20:31.906Z,14.13
2023-05-10T07:23:01.520Z,14.25
2023-05-10T07:25:33.585Z,14.22
2023-05-10T07:28:02.999Z,14.06
2023-05-10T07:30:32.496Z,14.19
2023-05-10T07:33:02.062Z,14.23
2023-05-10T07:35:31.637Z,14.22
2023-05-10T07:38:01.724Z,14.20
2023-05-10T07:40:33.885Z,14.24
2023-05-10T07:43:03.898Z,14.12
2023-05-10T07:45:33.601Z,14.12
2023-05-10T07:48:05.653Z,14.20
2023-05-10T07:50:35.285Z,14.19
2023-05-10T07:53:04.717Z,14.26
2023-05-10T07:55:37.045Z,14.17
2023-05-10T07:58:06.484Z,14.19
2023-05-10T08:00:36.344Z,14.17
2023-05-10T08:03:05.898Z,14.22
2023-05-10T08:05:35.873Z,14.19
2023-05-10T08:08:05.375Z,14.19
2023-05-10T08:10:37.440Z,14.34
2023-05-10T08:13:07.214Z,14.38
2023-05-10T08:15:36.678Z,14.40
2023-05-10T08:18:06.282Z,14.45
2023-05-10T08:20:35.755Z,14.43
2023-05-10T08:23:07.218Z,14.46
2023-05-10T08:25:39.258Z,14.53
2023-05-10T08:28:09.994Z,14.56
2023-05-10T08:30:41.308Z,14.57
2023-05-10T08:33:10.774Z,14.64
2023-05-10T08:35:40.331Z,14.63
2023-05-10T08:38:09.767Z,14.70
2023-05-10T08:40:44.286Z,14.77
2023-05-10T08:43:16.543Z,14.69
2023-05-10T08:45:48.953Z,14.76
2023-05-10T08:48:19.281Z,14.87
2023-05-10T08:50:50.132Z,14.89
2023-05-10T08:53:20.406Z,14.90
2023-05-10T08:55:52.500Z,14.92
2023-05-10T08:58:23.223Z,14.90
2023-05-10T09:00:54.693Z,14.97
2023-05-10T09:03:24.314Z,14.92
2023-05-10T09:05:53.815Z,14.91
2023-05-10T09:08:26.469Z,14.91
2023-05-10T09:10:58.701Z,14.93
2023-05-10T09:13:28.688Z,14.89
2023-05-10T09:16:02.138Z,14.97
2023-05-10T09:18:36.560Z,15.00
2023-05-10T09:21:06.544Z,15.03
2023-05-10T09:23:36.029Z,15.10
2023-05-10T09:26:08.896Z,15.07
2023-05-10T09:28:53.589Z,14.94
2023-05-10T09:31:23.377Z,15.00
2023-05-10T09:33:54.227Z,15.09
2023-05-10T09:36:23.754Z,15.12
2023-05-10T09:38:55.963Z,15.09
2023-05-10T09:41:29.226Z,15.15
2023-05-10T09:43:59.925Z,15.12
2023-05-10T09:46:29.596Z,15.16
2023-05-10T09:48:59.229Z,15.24
2023-05-10T09:51:29.220Z,15.24
2023-05-10T09:54:13.765Z,15.28
2023-05-10T09:56:46.455Z,15.30
2023-05-10T09:59:16.516Z,15.34
2023-05-10T10:01:46.000Z,15.33
2023-05-10T10:04:15.700Z,15.40
2023-05-10T10:06:45.719Z,15.33
2023-05-10T10:09:15.205Z,15.41
2023-05-10T10:11:47.283Z,15.43
2023-05-10T10:14:16.798Z,15.47
2023-05-10T10:16:55.710Z,15.49
2023-05-10T10:19:37.246Z,15.51
2023-05-10T10:22:07.367Z,15.53
2023-05-10T10:24:36.962Z,15.58
2023-05-10T10:27:19.054Z,15.58
2023-05-10T10:30:03.161Z,15.66
2023-05-10T10:32:41.982Z,15.65
2023-05-10T10:35:12.685Z,15.68
2023-05-10T10:37:47.359Z,15.70
2023-05-10T10:40:32.824Z,15.70
2023-05-10T10:43:27.831Z,15.76
2023-05-10T10:46:13.754Z,15.80
2023-05-10T10:48:43.635Z,15.81
2023-05-10T10:51:13.163Z,15.86
2023-05-10T10:53:43.981Z,15.88
2023-05-10T10:56:16.638Z,15.90
2023-05-10T10:58:54.706Z,15.93
2023-05-10T11:01:24.697Z,15.96
2023-05-10T11:04:21.466Z,15.99
2023-05-10T11:06:51.137Z,16.03
2023-05-10T11:09:21.875Z,16.06
2023-05-10T11:11:56.616Z,16.08
2023-05-10T11:14:29.334Z,16.08
2023-05-10T11:16:58.650Z,16.08
2023-05-10T11:19:31.646Z,16.08
2023-05-10T11:22:16.692Z,16.16
2023-05-10T11:25:00.388Z,16.22
2023-05-10T11:27:30.225Z,16.26
2023-05-10T11:30:04.289Z,16.30
2023-05-10T11:32:34.720Z,16.28
2023-05-10T11:35:11.011Z,16.37
2023-05-10T11:37:42.512Z,16.34
2023-05-10T11:40:12.747Z,16.37
2023-05-10T11:42:42.505Z,16.37
2023-05-10T11:45:14.949Z,16.42
2023-05-10T11:47:44.714Z,16.50
2023-05-10T11:50:15.221Z,16.54
2023-05-10T11:52:44.963Z,16.64
2023-05-10T11:55:16.062Z,16.59
2023-05-10T11:57:47.027Z,16.64
2023-05-10T12:00:19.934Z,16.71
2023-05-10T12:02:50.132Z,16.73
2023-05-10T12:05:20.524Z,16.81
2023-05-10T12:07:49.975Z,16.81
2023-05-10T12:10:19.752Z,17.00
2023-05-10T12:12:51.225Z,17.01
2023-05-10T12:15:25.430Z,17.11
2023-05-10T12:17:55.865Z,17.19
2023-05-10T12:20:27.270Z,17.14
2023-05-10T12:23:00.362Z,17.19
2023-05-10T12:25:34.390Z,17.17
2023-05-10T12:28:07.526Z,17.17
2023-05-10T12:30:40.671Z,17.10
2023-05-10T12:33:16.203Z,17.08
2023-05-10T12:35:50.312Z,17.09
2023-05-10T12:38:31.875Z,17.16
2023-05-10T12:41:02.055Z,17.29
2023-05-10T12:43:32.032Z,17.36
2023-05-10T12:46:08.710Z,17.39
2023-05-10T12:48:38.933Z,17.43
2023-05-10T12:51:10.522Z,17.39
2023-05-10T12:53:41.501Z,17.37
2023-05-10T12:56:12.944Z,17.37
2023-05-10T12:58:42.640Z,17.45
2023-05-10T13:01:14.787Z,17.53
2023-05-10T13:03:44.312Z,17.56
2023-05-10T13:06:14.582Z,17.58
2023-05-10T13:08:44.069Z,17.69
2023-05-10T13:11:17.623Z,17.65
2023-05-10T13:13:47.109Z,17.65
2023-05-10T13:16:19.257Z,17.67
2023-05-10T13:18:48.879Z,17.58
2023-05-10T13:21:18.415Z,17.50
2023-05-10T13:23:47.894Z,17.46
2023-05-10T13:26:17.390Z,17.53
2023-05-10T13:28:47.516Z,17.54
2023-05-10T13:31:19.562Z,17.52
2023-05-10T13:33:49.028Z,17.52
2023-05-10T13:36:18.482Z,17.58
2023-05-10T13:38:47.915Z,17.62
2023-05-10T13:41:17.370Z,17.61
2023-05-10T13:43:47.080Z,17.66
2023-05-10T13:46:19.213Z,17.66
2023-05-10T13:48:48.741Z,17.62
2023-05-10T13:51:18.196Z,17.62
2023-05-10T13:53:48.165Z,17.59
2023-05-10T13:56:17.740Z,17.67
2023-05-10T13:58:47.567Z,17.61
2023-05-10T14:01:19.729Z,17.60
2023-05-10T14:03:49.366Z,17.61
2023-05-10T14:06:19.000Z,17.63
2023-05-10T14:08:48.473Z,17.60
2023-05-10T14:11:18.638Z,17.61
2023-05-10T14:13:48.126Z,17.61
2023-05-10T14:16:21.229Z,17.62
2023-05-10T14:18:50.990Z,17.59
2023-05-10T14:21:20.650Z,17.61
2023-05-10T14:23:50.122Z,17.56
2023-05-10T14:26:19.695Z,17.52
2023-05-10T14:28:49.227Z,17.50
2023-05-10T14:31:21.605Z,17.46
2023-05-10T14:33:51.241Z,17.45
2023-05-10T14:36:21.116Z,17.41
2023-05-10T14:38:50.631Z,17.38
2023-05-10T14:41:20.199Z,17.36
2023-05-10T14:43:49.768Z,17.35
2023-05-10T14:46:21.993Z,17.36
2023-05-10T14:48:51.516Z,17.33
2023-05-10T14:51:22.884Z,17.33
2023-05-10T14:53:52.877Z,17.31
2023-05-10T14:56:22.619Z,17.25
2023-05-10T14:58:53.767Z,17.26
2023-05-10T15:01:26.374Z,17.23
2023-05-10T15:03:56.348Z,17.26
2023-05-10T15:06:26.989Z,17.22
2023-05-10T15:08:56.230Z,17.22
2023-05-10T15:11:25.484Z,17.22
2023-05-10T15:13:54.803Z,17.22
2023-05-10T15:16:26.821Z,17.25
2023-05-10T15:18:56.303Z,17.19
2023-05-10T15:21:25.616Z,17.19
2023-05-10T15:23:55.202Z,17.21
2023-05-10T15:26:25.155Z,17.22
2023-05-10T15:28:54.482Z,17.21
2023-05-10T15:31:26.582Z,17.19
2023-05-10T15:34:00.537Z,17.21
2023-05-10T15:36:29.911Z,17.20
2023-05-10T15:38:59.198Z,17.20
2023-05-10T15:41:31.274Z,17.21
2023-05-10T15:44:01.091Z,17.18
2023-05-10T15:46:33.411Z,17.16
2023-05-10T15:49:02.798Z,17.18
2023-05-10T15:51:35.364Z,17.15
2023-05-10T15:54:08.334Z,17.14
2023-05-10T15:56:38.278Z,17.12
2023-05-10T15:59:08.798Z,17.11
2023-05-10T16:01:40.694Z,17.06
2023-05-10T16:04:10.054Z,17.02
2023-05-10T16:06:39.759Z,17.05
2023-05-10T16:09:09.045Z,17.02
2023-05-10T16:11:38.316Z,17.00
2023-05-10T16:14:07.626Z,16.93
2023-05-10T16:16:37.057Z,16.91
2023-05-10T16:19:09.123Z,16.81
2023-05-10T16:21:38.650Z,16.80
2023-05-10T16:24:08.332Z,16.77
2023-05-10T16:26:41.176Z,16.72
2023-05-10T16:29:10.693Z,16.67
2023-05-10T16:31:40.038Z,16.67
2023-05-10T16:34:11.898Z,16.57
2023-05-10T16:36:41.237Z,16.57
2023-05-10T16:39:11.367Z,16.60
2023-05-10T16:41:40.746Z,16.54
2023-05-10T16:44:10.014Z,16.57
2023-05-10T16:46:39.384Z,16.54
2023-05-10T16:49:12.481Z,16.51
2023-05-10T16:51:41.850Z,16.47
2023-05-10T16:54:11.093Z,16.49
2023-05-10T16:56:40.439Z,16.48
2023-05-10T16:59:09.774Z,16.41
2023-05-10T17:01:39.074Z,16.32
2023-05-10T17:04:08.464Z,16.40
2023-05-10T17:06:40.915Z,16.38
2023-05-10T17:09:10.206Z,16.42
2023-05-10T17:11:39.508Z,16.32
2023-05-10T17:14:08.867Z,16.28
2023-05-10T17:16:38.312Z,16.24
2023-05-10T17:19:07.849Z,16.19
2023-05-10T17:21:37.197Z,16.20
2023-05-10T17:24:09.408Z,16.15
2023-05-10T17:26:38.742Z,16.20
2023-05-10T17:29:08.051Z,16.24
2023-05-10T17:31:37.324Z,16.24
2023-05-10T17:34:06.703Z,16.17
2023-05-10T17:36:36.137Z,16.20
2023-05-10T17:39:05.463Z,16.10
2023-05-10T17:41:37.358Z,16.11
2023-05-10T17:44:06.717Z,16.14
2023-05-10T17:46:35.995Z,16.21
2023-05-10T17:49:05.325Z,16.17
2023-05-10T17:51:34.867Z,16.16
2023-05-10T17:54:04.229Z,16.20
2023-05-10T17:56:33.541Z,16.23
2023-05-10T17:59:05.489Z,16.18
2023-05-10T18:01:34.933Z,16.17
2023-05-10T18:04:06.208Z,16.08
2023-05-10T18:06:38.365Z,16.08
2023-05-10T18:09:07.844Z,16.05
2023-05-10T18:11:38.729Z,16.00
2023-05-10T18:14:10.766Z,16.00
2023-05-10T18:16:40.250Z,15.87
2023-05-10T18:19:09.648Z,16.01
2023-05-10T18:21:39.188Z,15.89
2023-05-10T18:24:08.923Z,15.93
2023-05-10T18:26:38.319Z,15.89
2023-05-10T18:29:10.147Z,15.75
2023-05-10T18:31:39.467Z,15.78
2023-05-10T18:34:08.830Z,15.89
2023-05-10T18:36:38.162Z,15.91
2023-05-10T18:39:08.512Z,15.92
2023-05-10T18:41:37.843Z,15.87
2023-05-10T18:44:09.737Z,15.92
2023-05-10T18:46:39.156Z,15.92
2023-05-10T18:49:08.640Z,15.98
2023-05-10T18:51:37.942Z,15.90
2023-05-10T18:54:07.446Z,15.87
2023-05-10T18:56:36.751Z,15.86
2023-05-10T18:59:06.079Z,15.90
2023-05-10T19:01:37.994Z,15.89
2023-05-10T19:04:08.106Z,15.79
2023-05-10T19:06:37.424Z,15.80
2023-05-10T19:09:07.032Z,15.71
2023-05-10T19:11:36.396Z,15.78
2023-05-10T19:14:05.889Z,15.76
2023-05-10T19:16:37.884Z,15.66
2023-05-10T19:19:08.702Z,15.70
2023-05-10T19:21:38.125Z,15.71
2023-05-10T19:24:07.614Z,15.63
2023-05-10T19:26:36.891Z,15.68
2023-05-10T19:29:06.200Z,15.60
2023-05-10T19:31:38.116Z,15.61
2023-05-10T19:34:07.388Z,15.58
2023-05-10T19:36:36.780Z,15.59
2023-05-10T19:39:06.047Z,15.55
2023-05-10T19:41:35.325Z,15.43
2023-05-10T19:44:04.762Z,15.47
2023-05-10T19:46:34.328Z,15.51
2023-05-10T19:49:06.237Z,15.60
2023-05-10T19:51:35.571Z,15.48
2023-05-10T19:54:05.458Z,15.52
2023-05-10T19:56:34.755Z,15.49
2023-05-10T19:59:04.382Z,15.42
2023-05-10T20:01:33.741Z,15.41
2023-05-10T20:04:06.117Z,15.36
2023-05-10T20:06:35.464Z,15.44
2023-05-10T20:09:05.060Z,15.25
2023-05-10T20:11:34.323Z,15.41
2023-05-10T20:14:03.907Z,15.32
2023-05-10T20:16:33.391Z,15.40
2023-05-10T20:19:02.866Z,15.46
2023-05-10T20:21:35.612Z,15.45
2023-05-10T20:24:04.946Z,15.46
2023-05-10T20:26:34.245Z,15.34
2023-05-10T20:29:03.854Z,15.44
2023-05-10T20:31:33.327Z,15.39
2023-05-10T20:34:02.689Z,15.40
2023-05-10T20:36:31.990Z,15.41
2023-05-10T20:39:03.894Z,15.42
2023-05-10T20:41:33.174Z,15.41
2023-05-10T20:44:02.442Z,15.40
2023-05-10T20:46:31.825Z,15.43
2023-05-10T20:49:01.157Z,15.42
2023-05-10T20:51:33.119Z,15.40
2023-05-10T20:54:04.976Z,15.43
2023-05-10T20:56:35.148Z,15.43
2023-05-10T20:59:04.429Z,15.37
2023-05-10T21:01:33.885Z,15.42
2023-05-10T21:04:03.211Z,15.42
2023-05-10T21:06:32.592Z,15.32
2023-05-10T21:09:02.045Z,15.35
2023-05-10T21:11:36.210Z,15.38
2023-05-10T21:14:05.700Z,15.28
2023-05-10T21:16:35.074Z,15.21
2023-05-10T21:19:04.634Z,15.19
2023-05-10T21:21:34.070Z,15.22
2023-05-10T21:24:03.369Z,15.20
2023-05-10T21:26:35.334Z,15.16
2023-05-10T21:29:05.264Z,15.23
2023-05-10T21:31:34.676Z,15.28
2023-05-10T21:34:03.992Z,15.29
2023-05-10T21:36:33.626Z,15.26
2023-05-10T21:39:03.363Z,15.26
2023-05-10T21:41:35.280Z,15.31
2023-05-10T21:44:04.665Z,15.30
2023-05-10T21:46:34.185Z,15.28
2023-05-10T21:49:03.452Z,15.30
2023-05-10T21:51:33.186Z,15.25
2023-05-10T21:54:02.806Z,15.17
2023-05-10T21:56:32.066Z,15.20
2023-05-10T21:59:04.495Z,15.08
2023-05-10T22:01:33.864Z,15.14
2023-05-10T22:04:03.171Z,15.17
2023-05-10T22:06:32.440Z,15.23
2023-05-10T22:09:02.375Z,15.15
2023-05-10T22:11:31.668Z,15.20
2023-05-10T22:14:01.000Z,15.24
2023-05-10T22:16:32.875Z,15.23
2023-05-10T22:19:02.334Z,15.21
2023-05-10T22:21:32.038Z,15.22
2023-05-10T22:24:01.339Z,15.17
2023-05-10T22:26:30.683Z,15.19
2023-05-10T22:28:59.985Z,15.20
2023-05-10T22:31:29.689Z,15.18
2023-05-10T22:34:01.600Z,15.17
2023-05-10T22:36:31.723Z,15.20
2023-05-10T22:39:01.132Z,15.24
2023-05-10T22:41:30.419Z,15.07
2023-05-10T22:43:59.758Z,15.04
2023-05-10T22:46:29.394Z,15.13
2023-05-10T22:49:01.443Z,15.03
2023-05-10T22:51:31.117Z,14.94
2023-05-10T22:54:00.409Z,14.91
2023-05-10T22:56:29.882Z,14.97
2023-05-10T22:58:59.492Z,15.03
2023-05-10T23:01:28.974Z,15.01
2023-05-10T23:04:01.256Z,15.12
2023-05-10T23:06:30.670Z,15.12
2023-05-10T23:09:00.061Z,15.10
2023-05-10T23:11:29.355Z,15.02
2023-05-10T23:13:58.875Z,15.11
2023-05-10T23:16:28.180Z,15.06
2023-05-10T23:18:57.532Z,15.04
2023-05-10T23:21:31.852Z,15.04
2023-05-10T23:24:01.495Z,15.06
2023-05-10T23:26:30.892Z,15.14
2023-05-10T23:29:00.174Z,15.12
2023-05-10T23:31:29.746Z,15.11
2023-05-10T23:33:59.040Z,15.11
2023-05-10T23:36:31.916Z,15.13
2023-05-10T23:39:01.478Z,15.08
2023-05-10T23:41:30.809Z,15.05
2023-05-10T23:44:00.074Z,15.06
2023-05-10T23:46:33.605Z,15.02
2023-05-10T23:49:03.062Z,15.04
2023-05-10T23:51:34.936Z,15.01
2023-05-10T23:54:04.225Z,15.03
2023-05-10T23:56:33.649Z,15.01
2023-05-10T23:59:03.018Z,15.02
